Etusivu
METAR-TAF:

METAR-TAF

Lentoasemat :

Melun, Ranska

Leveyspiiri: 48-37N, Pituuspiiri: 002-41E, korkeus merenpinnasta: 95 m

Tämänhetkinen sää

Tämä raportti tehtiin 25 minuuttia sitten, kello 13.30 UTC
Tuuli 14 kn lännestä/lounaasta, vaihdellen etelän/lounaan ja lännen välillä
Lämpötila 22°C
Kosteus 53%
Ilmanpaine 1014 hPa
Näkyvyys 10 km tai enemmän
Muutamia pilviä 4600 ft:n korkeudessa
Hajanaisia pilviä 5200 ft:n korkeudessa
Pilvistä 7600 ft:n korkeudessa

METAR: LFPM 281330Z AUTO 24014KT 210V270 9999 FEW046 SCT052 OVC076 22/12 Q1014

Aika: 15:55 (13:55 UTC)


TAF: puuttuu

Säähavainnot ja -ennusteet yli 4000 lentoasemalta (METAR- ja TAF-raportit).

Käytössä olevat sääasemat on merkitty karttaan keltaisilla ja punaisilla pisteillä.

Aseta hiiri pisteen päälle nähdäksesi sääaseman nimen.

Klikkaa sitten nähdäksesi säähavainnot ja -ennusteet.

Kartan vaihtaminen: klikkaa mustalla rastilla varustettuja vihreitä pisteitä, niin voit zoomata sisään; viivalla varustettua vihreää pistettä, niin voit zoomata ulos tai vihreitä nuolia, niin pääset viereisille kartoille.


METAR-TAF: